Time;durP1;ratioP1;P1;durP2;ratioP2;P2;SDS_P1;SDS_P2;PMS_P1;PMS_P2;Temp;Humidity;BMP_temperature;BMP_pressure;BME280_temperature;BME280_humidity;BME280_pressure;Samples;Min_cycle;Max_cycle;Signal;HPM_P1;HPM_P2
2022/02/01 18:48:53;;;;;;;26.80;10.70;;;8.60;99.90;;;;;;4734073;27;10001983;-62
2022/02/01 18:52:09;;;;;;;25.02;9.65;;;8.60;99.90;;;;;;5085480;28;20020;-59
2022/02/01 18:59:22;;;;;;;29.73;9.70;;;8.80;99.90;;;;;;5065695;28;20082;-62
2022/02/01 19:12:46;;;;;;;33.50;8.18;;;8.80;99.90;;;;;;5126207;28;20046;-66
2022/02/01 19:15:19;;;;;;;33.67;8.65;;;8.80;99.90;;;;;;5126380;28;20015;-66
2022/02/01 19:17:47;;;;;;;23.42;8.18;;;8.80;99.90;;;;;;5126413;28;20114;-65
2022/02/01 19:20:14;;;;;;;24.15;8.63;;;8.80;99.90;;;;;;5126947;28;20051;-58
2022/02/01 19:22:42;;;;;;;33.70;10.30;;;8.80;99.90;;;;;;5126609;28;20039;-62
2022/02/01 19:25:12;;;;;;;28.42;8.65;;;8.80;99.90;;;;;;5126342;28;20031;-58
2022/02/01 19:27:39;;;;;;;33.80;9.38;;;8.60;99.90;;;;;;5126222;28;20027;-59
2022/02/01 19:30:07;;;;;;;29.48;9.65;;;8.60;99.90;;;;;;5125854;28;20035;-53
2022/02/01 19:32:37;;;;;;;30.13;9.15;;;8.50;99.90;;;;;;5125552;27;20491;-51
2022/02/01 19:35:06;;;;;;;24.73;8.52;;;8.50;99.90;;;;;;5125891;28;20106;-58
2022/02/01 19:37:33;;;;;;;35.63;9.75;;;8.40;99.90;;;;;;5125856;28;20069;-55
2022/02/01 19:39:58;;;;;;;24.25;8.85;;;8.40;99.90;;;;;;5125964;28;20740;-54
2022/02/01 19:42:27;;;;;;;27.63;8.38;;;8.40;99.90;;;;;;5102177;28;20120;-59
2022/02/01 19:44:57;;;;;;;22.75;7.63;;;8.40;99.90;;;;;;5104181;28;20028;-54
2022/02/01 19:47:30;;;;;;;27.10;9.80;;;8.40;99.90;;;;;;5104858;28;20031;-57
2022/02/01 19:50:00;;;;;;;29.50;9.30;;;8.40;99.90;;;;;;5104899;28;20126;-56
2022/02/01 19:52:26;;;;;;;24.27;7.63;;;8.30;99.90;;;;;;5104715;28;20056;-55
2022/02/01 19:54:55;;;;;;;32.15;10.85;;;8.30;99.90;;;;;;5085671;28;20028;-54
2022/02/01 19:57:27;;;;;;;29.92;9.07;;;8.30;99.90;;;;;;5094525;28;20084;-55
2022/02/01 20:00:00;;;;;;;35.72;9.90;;;8.40;99.90;;;;;;5093787;28;20027;-53
2022/02/01 20:02:26;;;;;;;30.65;9.90;;;8.30;99.90;;;;;;5111495;28;20505;-55
2022/02/01 20:04:52;;;;;;;30.35;11.00;;;8.30;99.90;;;;;;5110844;28;20027;-58
2022/02/01 20:07:26;;;;;;;24.67;9.85;;;8.30;99.90;;;;;;5111526;28;20077;-54
2022/02/01 20:10:03;;;;;;;21.00;7.75;;;8.30;99.90;;;;;;5111243;28;20051;-56
2022/02/01 20:12:29;;;;;;;26.48;9.98;;;8.30;99.90;;;;;;5111308;28;20035;-55
2022/02/01 20:14:55;;;;;;;28.92;11.35;;;8.40;99.90;;;;;;5110210;28;20107;-54
2022/02/01 20:17:21;;;;;;;31.05;11.38;;;8.20;99.90;;;;;;5092908;28;20044;-52
2022/02/01 20:19:47;;;;;;;35.35;10.73;;;8.00;99.90;;;;;;5092610;28;20030;-54
2022/02/01 20:22:13;;;;;;;39.25;12.60;;;7.90;99.90;;;;;;5110635;28;20394;-58
2022/02/01 20:24:40;;;;;;;26.30;9.45;;;7.90;99.90;;;;;;5110387;28;20028;-60
2022/02/01 20:27:06;;;;;;;27.08;10.70;;;7.90;99.90;;;;;;5092787;28;20399;-60
2022/02/01 20:29:33;;;;;;;29.35;9.05;;;7.90;99.90;;;;;;5108248;28;20027;-56
2022/02/01 20:32:01;;;;;;;29.77;9.85;;;8.00;99.90;;;;;;5101088;28;20096;-57
2022/02/01 20:34:27;;;;;;;36.70;12.63;;;8.00;99.90;;;;;;5083295;28;20028;-56
2022/02/01 20:36:53;;;;;;;29.55;8.73;;;8.20;99.90;;;;;;5113237;28;20032;-58
2022/02/01 20:39:23;;;;;;;27.27;10.13;;;8.20;99.90;;;;;;5096289;28;20499;-56
2022/02/01 20:41:52;;;;;;;25.10;8.95;;;8.20;99.90;;;;;;5093251;28;20059;-58
2022/02/01 20:44:18;;;;;;;39.20;11.73;;;8.30;99.90;;;;;;4742891;28;10000130;-55
2022/02/01 20:46:44;;;;;;;27.77;7.90;;;8.30;99.90;;;;;;5110341;28;20080;-54
2022/02/01 20:49:10;;;;;;;21.13;7.68;;;8.40;99.90;;;;;;5110871;28;20028;-54
2022/02/01 20:51:37;;;;;;;26.27;10.55;;;8.50;99.90;;;;;;5110944;28;20074;-55
2022/02/01 20:54:04;;;;;;;30.88;8.77;;;8.50;99.90;;;;;;5110818;28;20068;-54
2022/02/01 20:56:30;;;;;;;24.42;8.68;;;8.60;99.90;;;;;;5114305;28;20028;-56
2022/02/01 20:58:56;;;;;;;34.30;11.05;;;8.60;99.90;;;;;;5113207;28;20024;-61
2022/02/01 21:01:21;;;;;;;23.15;8.05;;;8.70;99.90;;;;;;5113844;28;20043;-57
2022/02/01 21:03:48;;;;;;;29.88;11.02;;;8.70;99.90;;;;;;5105542;28;20052;-57
2022/02/01 21:06:13;;;;;;;26.08;9.15;;;8.70;99.90;;;;;;5088102;28;20396;-58
2022/02/01 21:08:41;;;;;;;25.50;9.57;;;8.70;99.90;;;;;;5112327;28;20065;-56
2022/02/01 21:11:06;;;;;;;30.25;8.45;;;8.70;99.90;;;;;;5091079;28;20051;-53
2022/02/01 21:13:33;;;;;;;27.38;8.32;;;8.70;99.90;;;;;;5110630;28;20055;-58
2022/02/01 21:15:59;;;;;;;25.15;8.70;;;8.70;99.90;;;;;;5091997;28;20449;-57
2022/02/01 21:18:25;;;;;;;30.17;9.52;;;8.70;99.90;;;;;;5110979;28;20032;-55
2022/02/01 21:20:51;;;;;;;35.33;14.23;;;8.70;99.90;;;;;;5109768;28;20441;-56
2022/02/01 21:23:18;;;;;;;27.48;24.55;;;8.60;99.90;;;;;;5091658;28;20039;-59
2022/02/01 21:25:44;;;;;;;32.92;26.90;;;7.90;99.90;;;;;;5091658;28;20115;-53
2022/02/01 21:28:09;;;;;;;29.17;25.75;;;7.50;99.90;;;;;;5110265;28;20106;-54
2022/02/01 21:30:35;;;;;;;26.88;23.85;;;7.30;99.90;;;;;;5092126;28;20031;-58
2022/02/01 21:33:02;;;;;;;30.48;22.17;;;7.00;99.90;;;;;;5109739;28;20062;-55
2022/02/01 21:35:30;;;;;;;28.55;21.70;;;7.10;99.90;;;;;;5109437;28;20724;-57
2022/02/01 21:37:56;;;;;;;33.15;21.92;;;7.10;99.90;;;;;;5109493;28;20127;-60
2022/02/01 21:40:21;;;;;;;30.75;19.58;;;7.00;99.90;;;;;;5109539;28;20135;-55
2022/02/01 21:42:47;;;;;;;32.35;18.58;;;7.00;99.90;;;;;;5090937;28;20076;-55
2022/02/01 21:45:13;;;;;;;28.15;17.95;;;7.00;99.90;;;;;;5108354;28;20663;-57
2022/02/01 21:47:40;;;;;;;37.58;17.25;;;7.00;99.90;;;;;;5109298;28;20023;-54
2022/02/01 21:50:08;;;;;;;31.70;16.92;;;6.90;99.90;;;;;;5109289;28;20016;-57
2022/02/01 21:52:35;;;;;;;;;;;6.80;99.90;;;;;;5109780;28;20097;-57
2022/02/01 21:55:02;;;;;;;28.48;16.23;;;6.90;99.90;;;;;;5108842;28;20318;-55
2022/02/01 21:57:28;;;;;;;25.35;16.90;;;7.00;99.90;;;;;;5108796;28;20024;-52
2022/02/01 21:59:53;;;;;;;25.25;16.55;;;7.10;99.90;;;;;;5088609;28;20089;-53
2022/02/01 22:02:19;;;;;;;31.23;16.27;;;7.10;99.90;;;;;;5112842;28;20032;-55
2022/02/01 22:04:45;;;;;;;25.67;14.60;;;7.20;99.90;;;;;;5111811;28;20103;-55
2022/02/01 22:07:10;;;;;;;34.72;13.45;;;7.20;99.90;;;;;;5094200;28;20429;-58
2022/02/01 22:09:36;;;;;;;24.48;11.48;;;7.30;99.90;;;;;;5094579;28;20049;-54
2022/02/01 22:12:02;;;;;;;29.15;11.85;;;7.30;99.90;;;;;;5112521;28;20024;-52
2022/02/01 22:14:28;;;;;;;26.08;11.32;;;7.30;99.90;;;;;;5106447;28;20028;-54
2022/02/01 22:16:56;;;;;;;28.98;11.05;;;7.30;99.90;;;;;;5112083;28;20027;-54
2022/02/01 22:19:22;;;;;;;24.67;9.50;;;7.40;99.90;;;;;;4751586;28;9999908;-54
2022/02/01 22:21:48;;;;;;;25.35;9.40;;;7.50;99.90;;;;;;5085584;28;20126;-56
2022/02/01 22:24:13;;;;;;;27.83;8.65;;;7.40;99.90;;;;;;5111326;28;20066;-55
2022/02/01 22:26:39;;;;;;;24.00;10.07;;;7.40;99.90;;;;;;5111800;28;20081;-59
2022/02/01 22:29:06;;;;;;;26.45;10.25;;;7.40;99.90;;;;;;5111449;28;20023;-54
2022/02/01 22:31:33;;;;;;;32.60;10.73;;;7.40;99.90;;;;;;5111986;28;20390;-56
2022/02/01 22:33:59;;;;;;;45.78;10.88;;;7.30;99.90;;;;;;5111526;28;20497;-58
2022/02/01 22:36:25;;;;;;;28.27;9.27;;;7.30;99.90;;;;;;5112031;28;20031;-55
2022/02/01 22:38:51;;;;;;;24.52;7.50;;;7.30;99.90;;;;;;5093882;28;20445;-54
2022/02/01 22:41:17;;;;;;;27.77;9.15;;;7.40;99.90;;;;;;5112084;28;20091;-58
2022/02/01 22:43:43;;;;;;;30.83;9.90;;;7.40;99.90;;;;;;5111883;28;20023;-56
2022/02/01 22:46:12;;;;;;;36.58;11.27;;;7.40;99.90;;;;;;5093247;28;20024;-57
2022/02/01 22:48:38;;;;;;;32.90;10.30;;;7.50;99.90;;;;;;5111768;28;20061;-53
2022/02/01 22:51:04;;;;;;;29.80;11.30;;;7.50;99.90;;;;;;5093484;28;20043;-58
2022/02/01 22:53:36;;;;;;;32.25;10.88;;;7.50;99.90;;;;;;5109199;28;21137;-58
2022/02/01 22:56:02;;;;;;;27.23;12.50;;;7.50;99.90;;;;;;5089004;28;20019;-56
2022/02/01 22:58:28;;;;;;;29.45;9.10;;;7.50;99.90;;;;;;5080972;28;20116;-53
2022/02/01 23:00:54;;;;;;;27.70;10.13;;;7.50;99.90;;;;;;5086382;28;20126;-53
2022/02/01 23:03:22;;;;;;;36.20;10.38;;;7.40;99.90;;;;;;5108790;28;20368;-54
2022/02/01 23:05:55;;;;;;;;;;;7.30;99.90;;;;;;5108155;28;20073;-53
2022/02/01 23:08:26;;;;;;;31.30;10.77;;;7.20;99.90;;;;;;5108315;28;19911;-54
2022/02/01 23:10:57;;;;;;;30.95;11.40;;;7.10;99.90;;;;;;5101849;28;20140;-55
2022/02/01 23:18:40;;;;;;;25.73;9.50;;;7.20;99.90;;;;;;5096540;28;20024;-53
2022/02/01 23:21:06;;;;;;;33.40;10.48;;;7.20;99.90;;;;;;5088462;28;20028;-58
2022/02/01 23:23:31;;;;;;;32.15;11.55;;;7.20;99.90;;;;;;5093360;28;20039;-56
2022/02/01 23:25:57;;;;;;;44.35;13.23;;;7.20;99.90;;;;;;5105144;28;20114;-52
2022/02/01 23:28:23;;;;;;;35.72;12.50;;;7.30;99.90;;;;;;5098888;28;20030;-54
2022/02/01 23:30:49;;;;;;;38.72;11.48;;;7.40;99.90;;;;;;5073805;28;20020;-54
2022/02/01 23:33:22;;;;;;;36.03;11.95;;;7.50;99.90;;;;;;5092690;28;20095;-55
2022/02/01 23:43:36;;;;;;;;;;;7.60;99.90;;;;;;5111718;28;20472;-57
2022/02/01 23:48:46;;;;;;;27.13;12.02;;;7.80;99.90;;;;;;5115765;28;20042;-59
2022/02/01 23:51:11;;;;;;;40.05;10.30;;;7.70;99.90;;;;;;5096612;28;20020;-58
2022/02/01 23:53:38;;;;;;;36.70;13.13;;;7.80;99.90;;;;;;5096542;28;20028;-61
2022/02/01 23:56:12;;;;;;;33.70;12.10;;;7.80;99.90;;;;;;5113920;28;20026;-58
2022/02/01 23:59:08;;;;;;;43.75;13.23;;;7.80;99.90;;;;;;5113599;28;20076;-61
